sensor_id;sensor_type;location;lat;lon;timestamp;P1;durP1;ratioP1;P2;durP2;ratioP2
9032;SDS011;4551;53.164;8.210;2022-07-12T00:00:58;1.47;;;1.40;;
9032;SDS011;4551;53.164;8.210;2022-07-12T00:03:27;1.33;;;1.33;;
9032;SDS011;4551;53.164;8.210;2022-07-12T00:05:56;1.60;;;1.50;;
9032;SDS011;4551;53.164;8.210;2022-07-12T00:08:24;1.37;;;1.37;;
9032;SDS011;4551;53.164;8.210;2022-07-12T00:10:52;1.30;;;1.30;;
9032;SDS011;4551;53.164;8.210;2022-07-12T00:13:21;1.40;;;1.40;;
9032;SDS011;4551;53.164;8.210;2022-07-12T00:15:49;1.67;;;1.40;;
9032;SDS011;4551;53.164;8.210;2022-07-12T00:18:17;1.40;;;1.30;;
9032;SDS011;4551;53.164;8.210;2022-07-12T00:20:47;1.60;;;1.50;;
9032;SDS011;4551;53.164;8.210;2022-07-12T00:23:17;1.47;;;1.43;;
9032;SDS011;4551;53.164;8.210;2022-07-12T00:25:45;1.33;;;1.20;;
9032;SDS011;4551;53.164;8.210;2022-07-12T00:28:14;1.73;;;1.47;;
9032;SDS011;4551;53.164;8.210;2022-07-12T00:30:42;1.20;;;1.20;;
9032;SDS011;4551;53.164;8.210;2022-07-12T00:33:10;1.27;;;1.27;;
9032;SDS011;4551;53.164;8.210;2022-07-12T00:35:38;1.60;;;1.50;;
9032;SDS011;4551;53.164;8.210;2022-07-12T00:38:08;1.83;;;1.73;;
9032;SDS011;4551;53.164;8.210;2022-07-12T00:40:36;1.20;;;1.20;;
9032;SDS011;4551;53.164;8.210;2022-07-12T00:43:04;1.40;;;1.40;;
9032;SDS011;4551;53.164;8.210;2022-07-12T00:45:32;1.17;;;1.17;;
9032;SDS011;4551;53.164;8.210;2022-07-12T00:48:00;1.27;;;1.27;;
9032;SDS011;4551;53.164;8.210;2022-07-12T00:50:29;1.43;;;1.33;;
9032;SDS011;4551;53.164;8.210;2022-07-12T00:52:57;1.47;;;1.40;;
9032;SDS011;4551;53.164;8.210;2022-07-12T00:55:27;1.93;;;1.83;;
9032;SDS011;4551;53.164;8.210;2022-07-12T00:57:55;1.37;;;1.30;;
9032;SDS011;4551;53.164;8.210;2022-07-12T01:00:24;1.20;;;1.20;;
9032;SDS011;4551;53.164;8.210;2022-07-12T01:02:54;1.60;;;1.50;;
9032;SDS011;4551;53.164;8.210;2022-07-12T01:05:23;1.40;;;1.40;;
9032;SDS011;4551;53.164;8.210;2022-07-12T01:07:54;1.83;;;1.50;;
9032;SDS011;4551;53.164;8.210;2022-07-12T01:10:23;1.40;;;1.30;;
9032;SDS011;4551;53.164;8.210;2022-07-12T01:12:53;1.37;;;1.33;;
9032;SDS011;4551;53.164;8.210;2022-07-12T01:15:25;1.53;;;1.40;;
9032;SDS011;4551;53.164;8.210;2022-07-12T01:17:54;2.17;;;1.33;;
9032;SDS011;4551;53.164;8.210;2022-07-12T01:20:23;1.50;;;1.40;;
9032;SDS011;4551;53.164;8.210;2022-07-12T01:22:54;1.63;;;1.53;;
9032;SDS011;4551;53.164;8.210;2022-07-12T01:25:24;1.83;;;1.50;;
9032;SDS011;4551;53.164;8.210;2022-07-12T01:27:52;1.53;;;1.43;;
9032;SDS011;4551;53.164;8.210;2022-07-12T01:30:20;1.43;;;1.33;;
9032;SDS011;4551;53.164;8.210;2022-07-12T01:32:49;1.40;;;1.40;;
9032;SDS011;4551;53.164;8.210;2022-07-12T01:35:19;1.80;;;1.70;;
9032;SDS011;4551;53.164;8.210;2022-07-12T01:37:49;1.60;;;1.50;;
9032;SDS011;4551;53.164;8.210;2022-07-12T01:40:18;1.53;;;1.53;;
9032;SDS011;4551;53.164;8.210;2022-07-12T01:42:47;1.50;;;1.50;;
9032;SDS011;4551;53.164;8.210;2022-07-12T01:45:17;1.43;;;1.43;;
9032;SDS011;4551;53.164;8.210;2022-07-12T01:47:45;2.13;;;2.03;;
9032;SDS011;4551;53.164;8.210;2022-07-12T01:50:15;1.60;;;1.50;;
9032;SDS011;4551;53.164;8.210;2022-07-12T01:52:43;1.57;;;1.40;;
9032;SDS011;4551;53.164;8.210;2022-07-12T01:55:12;1.77;;;1.43;;
9032;SDS011;4551;53.164;8.210;2022-07-12T01:57:42;1.83;;;1.73;;
9032;SDS011;4551;53.164;8.210;2022-07-12T02:00:11;1.67;;;1.57;;
9032;SDS011;4551;53.164;8.210;2022-07-12T02:02:41;1.23;;;1.23;;
9032;SDS011;4551;53.164;8.210;2022-07-12T02:05:11;1.70;;;1.60;;
9032;SDS011;4551;53.164;8.210;2022-07-12T02:07:40;1.60;;;1.50;;
9032;SDS011;4551;53.164;8.210;2022-07-12T02:10:09;1.50;;;1.40;;
9032;SDS011;4551;53.164;8.210;2022-07-12T02:12:37;1.47;;;1.37;;
9032;SDS011;4551;53.164;8.210;2022-07-12T02:15:07;1.73;;;1.50;;
9032;SDS011;4551;53.164;8.210;2022-07-12T02:17:36;1.87;;;1.53;;
9032;SDS011;4551;53.164;8.210;2022-07-12T02:20:06;1.60;;;1.50;;
9032;SDS011;4551;53.164;8.210;2022-07-12T02:22:37;1.70;;;1.60;;
9032;SDS011;4551;53.164;8.210;2022-07-12T02:25:05;1.63;;;1.37;;
9032;SDS011;4551;53.164;8.210;2022-07-12T02:27:34;1.50;;;1.40;;
9032;SDS011;4551;53.164;8.210;2022-07-12T02:30:03;2.03;;;1.40;;
9032;SDS011;4551;53.164;8.210;2022-07-12T02:32:33;1.20;;;1.20;;
9032;SDS011;4551;53.164;8.210;2022-07-12T02:35:01;1.40;;;1.40;;
9032;SDS011;4551;53.164;8.210;2022-07-12T02:37:29;1.37;;;1.37;;
9032;SDS011;4551;53.164;8.210;2022-07-12T02:39:58;1.40;;;1.40;;
9032;SDS011;4551;53.164;8.210;2022-07-12T02:42:40;1.33;;;1.30;;
9032;SDS011;4551;53.164;8.210;2022-07-12T02:45:09;2.63;;;1.70;;
9032;SDS011;4551;53.164;8.210;2022-07-12T02:47:39;1.40;;;1.40;;
9032;SDS011;4551;53.164;8.210;2022-07-12T02:50:08;2.70;;;1.43;;
9032;SDS011;4551;53.164;8.210;2022-07-12T02:52:36;1.53;;;1.40;;
9032;SDS011;4551;53.164;8.210;2022-07-12T02:55:04;1.40;;;1.30;;
9032;SDS011;4551;53.164;8.210;2022-07-12T02:57:33;1.50;;;1.40;;
9032;SDS011;4551;53.164;8.210;2022-07-12T03:00:01;1.53;;;1.43;;
9032;SDS011;4551;53.164;8.210;2022-07-12T03:02:31;1.40;;;1.40;;
9032;SDS011;4551;53.164;8.210;2022-07-12T03:05:00;1.50;;;1.40;;
9032;SDS011;4551;53.164;8.210;2022-07-12T03:07:29;1.50;;;1.50;;
9032;SDS011;4551;53.164;8.210;2022-07-12T03:09:57;1.40;;;1.30;;
9032;SDS011;4551;53.164;8.210;2022-07-12T03:12:25;1.63;;;1.53;;
9032;SDS011;4551;53.164;8.210;2022-07-12T03:14:53;1.63;;;1.53;;
9032;SDS011;4551;53.164;8.210;2022-07-12T03:17:22;2.67;;;1.70;;
9032;SDS011;4551;53.164;8.210;2022-07-12T03:19:50;1.70;;;1.60;;
9032;SDS011;4551;53.164;8.210;2022-07-12T03:22:19;1.87;;;1.77;;
9032;SDS011;4551;53.164;8.210;2022-07-12T03:24:48;1.90;;;1.80;;
9032;SDS011;4551;53.164;8.210;2022-07-12T03:27:16;2.00;;;1.90;;
9032;SDS011;4551;53.164;8.210;2022-07-12T03:29:44;2.30;;;2.10;;
9032;SDS011;4551;53.164;8.210;2022-07-12T03:32:12;2.10;;;2.00;;
9032;SDS011;4551;53.164;8.210;2022-07-12T03:34:40;2.00;;;1.90;;
9032;SDS011;4551;53.164;8.210;2022-07-12T03:37:09;2.87;;;1.90;;
9032;SDS011;4551;53.164;8.210;2022-07-12T03:39:38;1.93;;;1.83;;
9032;SDS011;4551;53.164;8.210;2022-07-12T03:42:06;2.10;;;2.00;;
9032;SDS011;4551;53.164;8.210;2022-07-12T03:44:34;2.10;;;1.90;;
9032;SDS011;4551;53.164;8.210;2022-07-12T03:47:03;2.27;;;2.10;;
9032;SDS011;4551;53.164;8.210;2022-07-12T03:49:31;1.80;;;1.70;;
9032;SDS011;4551;53.164;8.210;2022-07-12T03:51:59;1.90;;;1.80;;
9032;SDS011;4551;53.164;8.210;2022-07-12T03:54:29;2.63;;;2.30;;
9032;SDS011;4551;53.164;8.210;2022-07-12T03:56:58;2.50;;;2.33;;
9032;SDS011;4551;53.164;8.210;2022-07-12T03:59:42;2.20;;;2.10;;
9032;SDS011;4551;53.164;8.210;2022-07-12T04:02:10;2.77;;;2.67;;
9032;SDS011;4551;53.164;8.210;2022-07-12T04:04:39;3.10;;;2.73;;
9032;SDS011;4551;53.164;8.210;2022-07-12T04:07:08;2.90;;;2.70;;
9032;SDS011;4551;53.164;8.210;2022-07-12T04:09:37;2.37;;;2.20;;
9032;SDS011;4551;53.164;8.210;2022-07-12T04:12:07;2.83;;;2.50;;
9032;SDS011;4551;53.164;8.210;2022-07-12T04:14:35;2.90;;;2.70;;
9032;SDS011;4551;53.164;8.210;2022-07-12T04:17:03;3.17;;;2.87;;
9032;SDS011;4551;53.164;8.210;2022-07-12T04:19:32;3.47;;;2.93;;
9032;SDS011;4551;53.164;8.210;2022-07-12T04:22:00;2.57;;;2.37;;
9032;SDS011;4551;53.164;8.210;2022-07-12T04:24:28;3.03;;;2.50;;
9032;SDS011;4551;53.164;8.210;2022-07-12T04:26:57;3.00;;;2.80;;
9032;SDS011;4551;53.164;8.210;2022-07-12T04:29:26;2.93;;;2.73;;
9032;SDS011;4551;53.164;8.210;2022-07-12T04:31:54;2.87;;;2.70;;
9032;SDS011;4551;53.164;8.210;2022-07-12T04:34:22;2.37;;;2.27;;
9032;SDS011;4551;53.164;8.210;2022-07-12T04:36:51;2.37;;;2.27;;
9032;SDS011;4551;53.164;8.210;2022-07-12T04:39:19;2.60;;;2.40;;
9032;SDS011;4551;53.164;8.210;2022-07-12T04:41:47;2.30;;;2.20;;
9032;SDS011;4551;53.164;8.210;2022-07-12T04:44:15;2.67;;;2.47;;
9032;SDS011;4551;53.164;8.210;2022-07-12T04:46:45;2.97;;;2.77;;
9032;SDS011;4551;53.164;8.210;2022-07-12T04:49:13;2.30;;;2.20;;
9032;SDS011;4551;53.164;8.210;2022-07-12T04:51:42;3.37;;;2.57;;
9032;SDS011;4551;53.164;8.210;2022-07-12T04:54:11;2.90;;;2.70;;
9032;SDS011;4551;53.164;8.210;2022-07-12T04:56:39;2.73;;;2.53;;
9032;SDS011;4551;53.164;8.210;2022-07-12T04:59:07;2.70;;;2.50;;
9032;SDS011;4551;53.164;8.210;2022-07-12T05:01:36;2.30;;;2.20;;
9032;SDS011;4551;53.164;8.210;2022-07-12T05:04:05;2.83;;;2.63;;
9032;SDS011;4551;53.164;8.210;2022-07-12T05:06:34;2.83;;;2.63;;
9032;SDS011;4551;53.164;8.210;2022-07-12T05:09:05;2.67;;;2.47;;
9032;SDS011;4551;53.164;8.210;2022-07-12T05:11:33;2.67;;;2.47;;
9032;SDS011;4551;53.164;8.210;2022-07-12T05:14:01;3.10;;;2.90;;
9032;SDS011;4551;53.164;8.210;2022-07-12T05:16:29;3.20;;;3.00;;
9032;SDS011;4551;53.164;8.210;2022-07-12T05:18:59;2.63;;;2.47;;
9032;SDS011;4551;53.164;8.210;2022-07-12T05:21:29;2.33;;;2.23;;
9032;SDS011;4551;53.164;8.210;2022-07-12T05:24:00;2.40;;;2.30;;
9032;SDS011;4551;53.164;8.210;2022-07-12T05:26:29;2.27;;;2.17;;
9032;SDS011;4551;53.164;8.210;2022-07-12T05:28:57;2.00;;;1.90;;
9032;SDS011;4551;53.164;8.210;2022-07-12T05:31:26;2.30;;;2.20;;
9032;SDS011;4551;53.164;8.210;2022-07-12T05:33:54;2.70;;;1.77;;
9032;SDS011;4551;53.164;8.210;2022-07-12T05:36:22;2.57;;;2.10;;
9032;SDS011;4551;53.164;8.210;2022-07-12T05:38:52;2.03;;;1.93;;
9032;SDS011;4551;53.164;8.210;2022-07-12T05:41:20;1.97;;;1.87;;
9032;SDS011;4551;53.164;8.210;2022-07-12T05:43:48;2.30;;;2.20;;
9032;SDS011;4551;53.164;8.210;2022-07-12T05:46:16;2.40;;;2.20;;
9032;SDS011;4551;53.164;8.210;2022-07-12T05:48:44;2.43;;;2.30;;
9032;SDS011;4551;53.164;8.210;2022-07-12T05:51:12;2.30;;;2.20;;
9032;SDS011;4551;53.164;8.210;2022-07-12T05:54:00;2.33;;;2.23;;
9032;SDS011;4551;53.164;8.210;2022-07-12T05:56:28;2.37;;;2.20;;
9032;SDS011;4551;53.164;8.210;2022-07-12T05:58:56;2.27;;;2.10;;
9032;SDS011;4551;53.164;8.210;2022-07-12T06:01:24;2.40;;;2.30;;
9032;SDS011;4551;53.164;8.210;2022-07-12T06:03:52;2.87;;;2.70;;
9032;SDS011;4551;53.164;8.210;2022-07-12T06:06:20;2.50;;;2.30;;
9032;SDS011;4551;53.164;8.210;2022-07-12T06:08:49;2.97;;;1.97;;
9032;SDS011;4551;53.164;8.210;2022-07-12T06:11:18;2.33;;;2.23;;
9032;SDS011;4551;53.164;8.210;2022-07-12T06:13:46;2.17;;;2.07;;
9032;SDS011;4551;53.164;8.210;2022-07-12T06:16:15;2.70;;;2.60;;
9032;SDS011;4551;53.164;8.210;2022-07-12T06:18:44;2.90;;;2.80;;
9032;SDS011;4551;53.164;8.210;2022-07-12T06:21:12;2.50;;;2.30;;
9032;SDS011;4551;53.164;8.210;2022-07-12T06:23:40;2.73;;;2.30;;
9032;SDS011;4551;53.164;8.210;2022-07-12T06:26:08;2.73;;;2.53;;
9032;SDS011;4551;53.164;8.210;2022-07-12T06:28:38;2.53;;;2.33;;
9032;SDS011;4551;53.164;8.210;2022-07-12T06:31:07;2.80;;;2.60;;
9032;SDS011;4551;53.164;8.210;2022-07-12T06:33:35;2.90;;;2.70;;
9032;SDS011;4551;53.164;8.210;2022-07-12T06:36:04;2.37;;;2.23;;
9032;SDS011;4551;53.164;8.210;2022-07-12T06:38:32;2.60;;;2.43;;
9032;SDS011;4551;53.164;8.210;2022-07-12T06:41:09;2.07;;;1.97;;
9032;SDS011;4551;53.164;8.210;2022-07-12T06:43:39;2.40;;;2.30;;
9032;SDS011;4551;53.164;8.210;2022-07-12T06:46:07;3.33;;;2.53;;
9032;SDS011;4551;53.164;8.210;2022-07-12T06:48:35;2.30;;;2.20;;
9032;SDS011;4551;53.164;8.210;2022-07-12T06:51:03;2.37;;;2.17;;
9032;SDS011;4551;53.164;8.210;2022-07-12T06:53:31;2.60;;;2.40;;
9032;SDS011;4551;53.164;8.210;2022-07-12T06:55:59;2.47;;;2.37;;
9032;SDS011;4551;53.164;8.210;2022-07-12T06:58:27;2.60;;;2.40;;
9032;SDS011;4551;53.164;8.210;2022-07-12T07:00:57;2.23;;;2.00;;
9032;SDS011;4551;53.164;8.210;2022-07-12T07:03:25;2.77;;;2.57;;
9032;SDS011;4551;53.164;8.210;2022-07-12T07:05:53;2.27;;;2.17;;
9032;SDS011;4551;53.164;8.210;2022-07-12T07:08:21;2.80;;;2.63;;
9032;SDS011;4551;53.164;8.210;2022-07-12T07:10:50;2.70;;;2.50;;
9032;SDS011;4551;53.164;8.210;2022-07-12T07:13:19;3.53;;;3.00;;
9032;SDS011;4551;53.164;8.210;2022-07-12T07:15:47;3.00;;;2.80;;
9032;SDS011;4551;53.164;8.210;2022-07-12T07:18:17;2.70;;;2.43;;
9032;SDS011;4551;53.164;8.210;2022-07-12T07:20:45;2.60;;;2.40;;
9032;SDS011;4551;53.164;8.210;2022-07-12T07:23:13;3.30;;;3.10;;
9032;SDS011;4551;53.164;8.210;2022-07-12T07:25:43;2.93;;;2.83;;
9032;SDS011;4551;53.164;8.210;2022-07-12T07:28:11;3.40;;;3.20;;
9032;SDS011;4551;53.164;8.210;2022-07-12T07:30:40;4.23;;;3.57;;
9032;SDS011;4551;53.164;8.210;2022-07-12T07:33:20;4.20;;;3.90;;
9032;SDS011;4551;53.164;8.210;2022-07-12T07:35:49;4.00;;;3.70;;
9032;SDS011;4551;53.164;8.210;2022-07-12T07:38:18;4.87;;;4.47;;
9032;SDS011;4551;53.164;8.210;2022-07-12T07:40:47;4.20;;;3.90;;
9032;SDS011;4551;53.164;8.210;2022-07-12T07:43:15;4.40;;;4.00;;
9032;SDS011;4551;53.164;8.210;2022-07-12T07:45:43;4.20;;;4.00;;
9032;SDS011;4551;53.164;8.210;2022-07-12T07:48:13;4.20;;;3.90;;
9032;SDS011;4551;53.164;8.210;2022-07-12T07:50:52;5.00;;;4.60;;
9032;SDS011;4551;53.164;8.210;2022-07-12T07:53:21;3.70;;;3.50;;
9032;SDS011;4551;53.164;8.210;2022-07-12T07:55:50;4.33;;;3.93;;
9032;SDS011;4551;53.164;8.210;2022-07-12T07:58:18;4.30;;;4.00;;
9032;SDS011;4551;53.164;8.210;2022-07-12T08:00:49;4.20;;;3.90;;
9032;SDS011;4551;53.164;8.210;2022-07-12T08:03:18;4.43;;;4.10;;
9032;SDS011;4551;53.164;8.210;2022-07-12T08:05:47;4.33;;;3.90;;
9032;SDS011;4551;53.164;8.210;2022-07-12T08:08:19;3.10;;;2.90;;
9032;SDS011;4551;53.164;8.210;2022-07-12T08:10:48;4.13;;;3.63;;
9032;SDS011;4551;53.164;8.210;2022-07-12T08:13:16;3.77;;;3.53;;
9032;SDS011;4551;53.164;8.210;2022-07-12T08:15:45;4.10;;;3.80;;
9032;SDS011;4551;53.164;8.210;2022-07-12T08:18:13;5.80;;;5.30;;
9032;SDS011;4551;53.164;8.210;2022-07-12T08:20:43;3.37;;;3.17;;
9032;SDS011;4551;53.164;8.210;2022-07-12T08:23:14;3.50;;;3.20;;
9032;SDS011;4551;53.164;8.210;2022-07-12T08:25:44;3.80;;;3.20;;
9032;SDS011;4551;53.164;8.210;2022-07-12T08:28:12;3.10;;;2.90;;
9032;SDS011;4551;53.164;8.210;2022-07-12T08:30:43;3.93;;;3.57;;
9032;SDS011;4551;53.164;8.210;2022-07-12T08:33:13;3.27;;;3.07;;
9032;SDS011;4551;53.164;8.210;2022-07-12T08:35:42;3.53;;;3.23;;
9032;SDS011;4551;53.164;8.210;2022-07-12T08:38:10;3.77;;;3.47;;
9032;SDS011;4551;53.164;8.210;2022-07-12T08:40:40;3.87;;;3.10;;
9032;SDS011;4551;53.164;8.210;2022-07-12T08:43:10;4.73;;;3.13;;
9032;SDS011;4551;53.164;8.210;2022-07-12T08:45:38;3.27;;;3.07;;
9032;SDS011;4551;53.164;8.210;2022-07-12T08:48:07;3.13;;;2.93;;
9032;SDS011;4551;53.164;8.210;2022-07-12T08:50:36;10.70;;;8.07;;
9032;SDS011;4551;53.164;8.210;2022-07-12T08:53:10;3.17;;;2.97;;
9032;SDS011;4551;53.164;8.210;2022-07-12T08:55:39;2.90;;;2.70;;
9032;SDS011;4551;53.164;8.210;2022-07-12T08:58:15;2.37;;;2.23;;
9032;SDS011;4551;53.164;8.210;2022-07-12T09:00:45;2.77;;;2.47;;
9032;SDS011;4551;53.164;8.210;2022-07-12T09:03:16;3.00;;;2.80;;
9032;SDS011;4551;53.164;8.210;2022-07-12T09:05:48;3.33;;;3.03;;
9032;SDS011;4551;53.164;8.210;2022-07-12T09:08:23;3.03;;;2.83;;
9032;SDS011;4551;53.164;8.210;2022-07-12T09:10:55;2.90;;;2.70;;
9032;SDS011;4551;53.164;8.210;2022-07-12T09:16:18;2.77;;;2.57;;
9032;SDS011;4551;53.164;8.210;2022-07-12T09:18:51;2.50;;;2.40;;
9032;SDS011;4551;53.164;8.210;2022-07-12T09:21:38;3.53;;;2.73;;
9032;SDS011;4551;53.164;8.210;2022-07-12T09:24:15;3.17;;;2.97;;
9032;SDS011;4551;53.164;8.210;2022-07-12T09:26:44;2.80;;;2.70;;
9032;SDS011;4551;53.164;8.210;2022-07-12T09:29:14;4.00;;;3.27;;
9032;SDS011;4551;53.164;8.210;2022-07-12T09:31:45;3.13;;;2.93;;
9032;SDS011;4551;53.164;8.210;2022-07-12T09:34:33;3.40;;;3.20;;
9032;SDS011;4551;53.164;8.210;2022-07-12T09:37:20;3.30;;;3.10;;
9032;SDS011;4551;53.164;8.210;2022-07-12T09:39:48;3.90;;;3.70;;
9032;SDS011;4551;53.164;8.210;2022-07-12T09:42:18;3.40;;;3.20;;
9032;SDS011;4551;53.164;8.210;2022-07-12T09:44:55;3.43;;;3.23;;
9032;SDS011;4551;53.164;8.210;2022-07-12T09:47:24;3.27;;;3.07;;
9032;SDS011;4551;53.164;8.210;2022-07-12T09:49:53;2.83;;;2.60;;
9032;SDS011;4551;53.164;8.210;2022-07-12T09:52:21;3.00;;;2.70;;
9032;SDS011;4551;53.164;8.210;2022-07-12T09:54:52;3.30;;;2.93;;
9032;SDS011;4551;53.164;8.210;2022-07-12T09:57:22;3.20;;;3.00;;
9032;SDS011;4551;53.164;8.210;2022-07-12T09:59:55;3.50;;;3.17;;
9032;SDS011;4551;53.164;8.210;2022-07-12T10:02:25;3.10;;;2.80;;
9032;SDS011;4551;53.164;8.210;2022-07-12T10:04:54;3.63;;;3.13;;
9032;SDS011;4551;53.164;8.210;2022-07-12T10:07:22;3.87;;;3.57;;
9032;SDS011;4551;53.164;8.210;2022-07-12T10:09:51;3.60;;;2.70;;
9032;SDS011;4551;53.164;8.210;2022-07-12T10:12:21;2.33;;;2.23;;
9032;SDS011;4551;53.164;8.210;2022-07-12T10:14:51;2.80;;;2.60;;
9032;SDS011;4551;53.164;8.210;2022-07-12T10:17:24;2.80;;;2.53;;
9032;SDS011;4551;53.164;8.210;2022-07-12T10:22:44;2.57;;;2.40;;
9032;SDS011;4551;53.164;8.210;2022-07-12T10:25:28;2.57;;;2.37;;
9032;SDS011;4551;53.164;8.210;2022-07-12T10:27:58;2.60;;;2.40;;
9032;SDS011;4551;53.164;8.210;2022-07-12T10:30:28;2.40;;;2.30;;
9032;SDS011;4551;53.164;8.210;2022-07-12T10:32:57;2.17;;;2.07;;
9032;SDS011;4551;53.164;8.210;2022-07-12T10:35:27;2.43;;;2.23;;
9032;SDS011;4551;53.164;8.210;2022-07-12T10:40:48;1.97;;;1.87;;
9032;SDS011;4551;53.164;8.210;2022-07-12T10:43:21;1.97;;;1.77;;
9032;SDS011;4551;53.164;8.210;2022-07-12T10:46:16;1.70;;;1.60;;
9032;SDS011;4551;53.164;8.210;2022-07-12T10:48:49;1.50;;;1.40;;
9032;SDS011;4551;53.164;8.210;2022-07-12T10:51:18;1.27;;;1.17;;
9032;SDS011;4551;53.164;8.210;2022-07-12T10:53:47;1.20;;;1.20;;
9032;SDS011;4551;53.164;8.210;2022-07-12T10:56:21;2.30;;;1.47;;
9032;SDS011;4551;53.164;8.210;2022-07-12T10:58:56;1.30;;;1.30;;
9032;SDS011;4551;53.164;8.210;2022-07-12T11:01:28;1.77;;;1.30;;
9032;SDS011;4551;53.164;8.210;2022-07-12T11:04:03;1.70;;;1.60;;
9032;SDS011;4551;53.164;8.210;2022-07-12T11:06:33;1.60;;;1.50;;
9032;SDS011;4551;53.164;8.210;2022-07-12T11:09:07;2.00;;;1.20;;
9032;SDS011;4551;53.164;8.210;2022-07-12T11:11:40;1.37;;;1.27;;
9032;SDS011;4551;53.164;8.210;2022-07-12T11:14:13;2.13;;;1.50;;
9032;SDS011;4551;53.164;8.210;2022-07-12T11:16:51;1.20;;;1.20;;
9032;SDS011;4551;53.164;8.210;2022-07-12T11:19:20;1.57;;;1.47;;
9032;SDS011;4551;53.164;8.210;2022-07-12T11:21:50;2.87;;;1.37;;
9032;SDS011;4551;53.164;8.210;2022-07-12T11:24:22;0.87;;;0.73;;
9032;SDS011;4551;53.164;8.210;2022-07-12T11:26:52;0.80;;;0.80;;
9032;SDS011;4551;53.164;8.210;2022-07-12T11:29:22;1.13;;;1.03;;
9032;SDS011;4551;53.164;8.210;2022-07-12T11:32:00;1.07;;;0.80;;
9032;SDS011;4551;53.164;8.210;2022-07-12T11:34:36;0.60;;;0.60;;
9032;SDS011;4551;53.164;8.210;2022-07-12T11:37:05;1.57;;;0.70;;
9032;SDS011;4551;53.164;8.210;2022-07-12T11:39:34;0.90;;;0.90;;
9032;SDS011;4551;53.164;8.210;2022-07-12T11:42:03;0.83;;;0.80;;
9032;SDS011;4551;53.164;8.210;2022-07-12T11:44:42;0.63;;;0.50;;
9032;SDS011;4551;53.164;8.210;2022-07-12T11:47:13;0.50;;;0.50;;
9032;SDS011;4551;53.164;8.210;2022-07-12T11:49:43;0.57;;;0.57;;
9032;SDS011;4551;53.164;8.210;2022-07-12T11:52:12;0.50;;;0.50;;
9032;SDS011;4551;53.164;8.210;2022-07-12T11:54:41;0.50;;;0.50;;
9032;SDS011;4551;53.164;8.210;2022-07-12T11:57:10;2.93;;;0.97;;
9032;SDS011;4551;53.164;8.210;2022-07-12T11:59:39;0.60;;;0.60;;
9032;SDS011;4551;53.164;8.210;2022-07-12T12:02:08;0.67;;;0.67;;
9032;SDS011;4551;53.164;8.210;2022-07-12T12:04:47;1.37;;;0.60;;
9032;SDS011;4551;53.164;8.210;2022-07-12T12:07:17;1.87;;;0.77;;
9032;SDS011;4551;53.164;8.210;2022-07-12T12:09:58;0.50;;;0.50;;
9032;SDS011;4551;53.164;8.210;2022-07-12T12:12:34;0.60;;;0.60;;
9032;SDS011;4551;53.164;8.210;2022-07-12T12:15:04;0.50;;;0.50;;
9032;SDS011;4551;53.164;8.210;2022-07-12T12:17:35;0.50;;;0.50;;
9032;SDS011;4551;53.164;8.210;2022-07-12T12:20:09;0.50;;;0.50;;
9032;SDS011;4551;53.164;8.210;2022-07-12T12:22:38;0.60;;;0.60;;
9032;SDS011;4551;53.164;8.210;2022-07-12T12:25:07;0.50;;;0.50;;
9032;SDS011;4551;53.164;8.210;2022-07-12T12:27:43;0.70;;;0.60;;
9032;SDS011;4551;53.164;8.210;2022-07-12T12:30:33;0.97;;;0.70;;
9032;SDS011;4551;53.164;8.210;2022-07-12T12:33:03;0.50;;;0.50;;
9032;SDS011;4551;53.164;8.210;2022-07-12T12:35:37;0.60;;;0.60;;
9032;SDS011;4551;53.164;8.210;2022-07-12T12:38:10;0.53;;;0.53;;
9032;SDS011;4551;53.164;8.210;2022-07-12T12:40:39;0.60;;;0.60;;
9032;SDS011;4551;53.164;8.210;2022-07-12T12:43:18;0.63;;;0.63;;
9032;SDS011;4551;53.164;8.210;2022-07-12T12:45:50;0.70;;;0.67;;
9032;SDS011;4551;53.164;8.210;2022-07-12T12:48:19;2.13;;;0.80;;
9032;SDS011;4551;53.164;8.210;2022-07-12T12:50:49;0.53;;;0.53;;
9032;SDS011;4551;53.164;8.210;2022-07-12T12:53:19;0.53;;;0.53;;
9032;SDS011;4551;53.164;8.210;2022-07-12T12:55:49;0.87;;;0.87;;
9032;SDS011;4551;53.164;8.210;2022-07-12T12:58:19;0.60;;;0.60;;
9032;SDS011;4551;53.164;8.210;2022-07-12T13:00:48;0.93;;;0.60;;
9032;SDS011;4551;53.164;8.210;2022-07-12T13:03:18;0.53;;;0.53;;
9032;SDS011;4551;53.164;8.210;2022-07-12T13:05:47;0.40;;;0.40;;
9032;SDS011;4551;53.164;8.210;2022-07-12T13:08:17;0.40;;;0.40;;
9032;SDS011;4551;53.164;8.210;2022-07-12T13:10:45;1.17;;;0.50;;
9032;SDS011;4551;53.164;8.210;2022-07-12T13:13:35;0.47;;;0.47;;
9032;SDS011;4551;53.164;8.210;2022-07-12T13:16:04;0.70;;;0.70;;
9032;SDS011;4551;53.164;8.210;2022-07-12T13:18:33;0.60;;;0.60;;
9032;SDS011;4551;53.164;8.210;2022-07-12T13:21:02;0.53;;;0.53;;
9032;SDS011;4551;53.164;8.210;2022-07-12T13:23:31;0.60;;;0.60;;
9032;SDS011;4551;53.164;8.210;2022-07-12T13:26:00;0.70;;;0.70;;
9032;SDS011;4551;53.164;8.210;2022-07-12T13:28:28;1.10;;;1.10;;
9032;SDS011;4551;53.164;8.210;2022-07-12T13:30:58;1.10;;;1.00;;
9032;SDS011;4551;53.164;8.210;2022-07-12T13:33:26;0.90;;;0.90;;
9032;SDS011;4551;53.164;8.210;2022-07-12T13:35:54;0.90;;;0.90;;
9032;SDS011;4551;53.164;8.210;2022-07-12T13:38:22;1.50;;;0.70;;
9032;SDS011;4551;53.164;8.210;2022-07-12T13:40:53;2.73;;;0.90;;
9032;SDS011;4551;53.164;8.210;2022-07-12T13:43:21;0.90;;;0.90;;
9032;SDS011;4551;53.164;8.210;2022-07-12T13:45:49;0.90;;;0.90;;
9032;SDS011;4551;53.164;8.210;2022-07-12T13:48:18;1.27;;;0.90;;
9032;SDS011;4551;53.164;8.210;2022-07-12T13:50:46;3.33;;;0.80;;
9032;SDS011;4551;53.164;8.210;2022-07-12T13:53:34;2.40;;;1.00;;
9032;SDS011;4551;53.164;8.210;2022-07-12T13:56:04;0.93;;;0.83;;
9032;SDS011;4551;53.164;8.210;2022-07-12T13:58:33;1.10;;;0.97;;
9032;SDS011;4551;53.164;8.210;2022-07-12T14:01:01;1.10;;;1.10;;
9032;SDS011;4551;53.164;8.210;2022-07-12T14:03:30;1.30;;;1.27;;
9032;SDS011;4551;53.164;8.210;2022-07-12T14:05:58;1.10;;;1.10;;
9032;SDS011;4551;53.164;8.210;2022-07-12T14:08:26;1.00;;;1.00;;
9032;SDS011;4551;53.164;8.210;2022-07-12T14:10:54;1.87;;;1.30;;
9032;SDS011;4551;53.164;8.210;2022-07-12T14:13:24;1.47;;;1.30;;
9032;SDS011;4551;53.164;8.210;2022-07-12T14:15:52;1.20;;;1.10;;
9032;SDS011;4551;53.164;8.210;2022-07-12T14:18:20;1.53;;;1.20;;
9032;SDS011;4551;53.164;8.210;2022-07-12T14:20:49;1.10;;;1.10;;
9032;SDS011;4551;53.164;8.210;2022-07-12T14:23:17;1.80;;;1.30;;
9032;SDS011;4551;53.164;8.210;2022-07-12T14:25:46;1.50;;;1.20;;
9032;SDS011;4551;53.164;8.210;2022-07-12T14:28:14;1.30;;;1.30;;
9032;SDS011;4551;53.164;8.210;2022-07-12T14:30:44;1.17;;;1.13;;
9032;SDS011;4551;53.164;8.210;2022-07-12T14:33:12;1.60;;;1.00;;
9032;SDS011;4551;53.164;8.210;2022-07-12T14:35:40;1.37;;;1.27;;
9032;SDS011;4551;53.164;8.210;2022-07-12T14:38:08;1.67;;;1.57;;
9032;SDS011;4551;53.164;8.210;2022-07-12T14:40:37;1.20;;;1.17;;
9032;SDS011;4551;53.164;8.210;2022-07-12T14:43:06;2.23;;;1.20;;
9032;SDS011;4551;53.164;8.210;2022-07-12T14:45:34;1.80;;;1.50;;
9032;SDS011;4551;53.164;8.210;2022-07-12T14:48:03;1.53;;;1.50;;
9032;SDS011;4551;53.164;8.210;2022-07-12T14:50:32;1.57;;;1.47;;
9032;SDS011;4551;53.164;8.210;2022-07-12T14:53:00;1.33;;;1.27;;
9032;SDS011;4551;53.164;8.210;2022-07-12T14:55:28;2.63;;;1.40;;
9032;SDS011;4551;53.164;8.210;2022-07-12T14:57:57;1.43;;;1.10;;
9032;SDS011;4551;53.164;8.210;2022-07-12T15:00:26;1.50;;;1.10;;
9032;SDS011;4551;53.164;8.210;2022-07-12T15:02:54;2.57;;;0.87;;
9032;SDS011;4551;53.164;8.210;2022-07-12T15:05:28;1.67;;;1.10;;
9032;SDS011;4551;53.164;8.210;2022-07-12T15:07:56;1.67;;;0.87;;
9032;SDS011;4551;53.164;8.210;2022-07-12T15:10:25;1.00;;;1.00;;
9032;SDS011;4551;53.164;8.210;2022-07-12T15:12:53;2.13;;;1.10;;
9032;SDS011;4551;53.164;8.210;2022-07-12T15:15:22;1.10;;;1.10;;
9032;SDS011;4551;53.164;8.210;2022-07-12T15:17:51;1.20;;;1.10;;
9032;SDS011;4551;53.164;8.210;2022-07-12T15:20:20;1.43;;;1.17;;
9032;SDS011;4551;53.164;8.210;2022-07-12T15:22:50;1.50;;;1.40;;
9032;SDS011;4551;53.164;8.210;2022-07-12T15:25:18;1.73;;;1.40;;
9032;SDS011;4551;53.164;8.210;2022-07-12T15:27:47;1.30;;;1.30;;
9032;SDS011;4551;53.164;8.210;2022-07-12T15:30:16;1.20;;;1.20;;
9032;SDS011;4551;53.164;8.210;2022-07-12T15:32:44;1.10;;;1.10;;
9032;SDS011;4551;53.164;8.210;2022-07-12T15:35:18;1.00;;;1.00;;
9032;SDS011;4551;53.164;8.210;2022-07-12T15:37:47;1.33;;;1.23;;
9032;SDS011;4551;53.164;8.210;2022-07-12T15:40:16;0.90;;;0.90;;